sensor_id;sensor_type;location;lat;lon;timestamp;pressure;altitude;pressure_sealevel;temperature;humidity
26807;BME280;14380;49.910;6.792;2022-07-01T00:02:16;98804.00;;;15.27;100.00
26807;BME280;14380;49.910;6.792;2022-07-01T00:04:42;98806.19;;;15.22;100.00
26807;BME280;14380;49.910;6.792;2022-07-01T00:07:09;98799.31;;;15.30;100.00
26807;BME280;14380;49.910;6.792;2022-07-01T00:09:37;98801.47;;;15.25;100.00
26807;BME280;14380;49.910;6.792;2022-07-01T00:12:04;98822.41;;;15.30;100.00
26807;BME280;14380;49.910;6.792;2022-07-01T00:14:33;98828.13;;;15.37;100.00
26807;BME280;14380;49.910;6.792;2022-07-01T00:17:00;98844.41;;;15.32;100.00
26807;BME280;14380;49.910;6.792;2022-07-01T00:19:27;98850.19;;;15.26;100.00
26807;BME280;14380;49.910;6.792;2022-07-01T00:21:53;98868.41;;;15.19;100.00
26807;BME280;14380;49.910;6.792;2022-07-01T00:24:20;98873.38;;;15.37;100.00
26807;BME280;14380;49.910;6.792;2022-07-01T00:26:47;98878.13;;;15.44;100.00
26807;BME280;14380;49.910;6.792;2022-07-01T00:29:14;98880.44;;;15.49;100.00
26807;BME280;14380;49.910;6.792;2022-07-01T00:31:42;98877.44;;;15.54;100.00
26807;BME280;14380;49.910;6.792;2022-07-01T00:34:08;98868.81;;;15.50;100.00
26807;BME280;14380;49.910;6.792;2022-07-01T00:36:35;98869.75;;;15.62;100.00
26807;BME280;14380;49.910;6.792;2022-07-01T00:39:02;98874.50;;;15.45;100.00
26807;BME280;14380;49.910;6.792;2022-07-01T00:41:29;98875.44;;;15.44;100.00
26807;BME280;14380;49.910;6.792;2022-07-01T00:43:55;98882.75;;;15.29;100.00
26807;BME280;14380;49.910;6.792;2022-07-01T00:46:23;98877.75;;;15.49;100.00
26807;BME280;14380;49.910;6.792;2022-07-01T00:48:54;98890.38;;;15.34;100.00
26807;BME280;14380;49.910;6.792;2022-07-01T00:51:22;98895.41;;;15.26;100.00
26807;BME280;14380;49.910;6.792;2022-07-01T00:53:49;98889.59;;;15.21;100.00
26807;BME280;14380;49.910;6.792;2022-07-01T00:56:16;98890.00;;;15.27;100.00
26807;BME280;14380;49.910;6.792;2022-07-01T00:58:44;98884.31;;;15.32;100.00
26807;BME280;14380;49.910;6.792;2022-07-01T01:01:11;98876.31;;;15.21;100.00
26807;BME280;14380;49.910;6.792;2022-07-01T01:03:38;98878.44;;;15.15;100.00
26807;BME280;14380;49.910;6.792;2022-07-01T01:06:06;98855.09;;;14.95;100.00
26807;BME280;14380;49.910;6.792;2022-07-01T01:08:33;98852.22;;;14.98;100.00
26807;BME280;14380;49.910;6.792;2022-07-01T01:11:00;98852.56;;;14.93;100.00
26807;BME280;14380;49.910;6.792;2022-07-01T01:13:26;98861.09;;;15.23;100.00
26807;BME280;14380;49.910;6.792;2022-07-01T01:15:53;98859.47;;;15.20;100.00
26807;BME280;14380;49.910;6.792;2022-07-01T01:18:20;98870.03;;;15.22;100.00
26807;BME280;14380;49.910;6.792;2022-07-01T01:20:48;98869.72;;;15.13;100.00
26807;BME280;14380;49.910;6.792;2022-07-01T01:23:15;98869.44;;;15.05;100.00
26807;BME280;14380;49.910;6.792;2022-07-01T01:25:41;98879.13;;;14.80;100.00
26807;BME280;14380;49.910;6.792;2022-07-01T01:28:08;98896.56;;;14.97;100.00
26807;BME280;14380;49.910;6.792;2022-07-01T01:30:35;98894.78;;;14.85;100.00
26807;BME280;14380;49.910;6.792;2022-07-01T01:33:02;98889.13;;;14.90;100.00
26807;BME280;14380;49.910;6.792;2022-07-01T01:35:29;98888.59;;;14.97;100.00
26807;BME280;14380;49.910;6.792;2022-07-01T01:37:58;98885.69;;;15.13;100.00
26807;BME280;14380;49.910;6.792;2022-07-01T01:40:25;98885.66;;;14.76;100.00
26807;BME280;14380;49.910;6.792;2022-07-01T01:42:51;98887.44;;;14.76;100.00
26807;BME280;14380;49.910;6.792;2022-07-01T01:45:18;98899.84;;;15.01;100.00
26807;BME280;14380;49.910;6.792;2022-07-01T01:47:45;98901.97;;;14.96;100.00
26807;BME280;14380;49.910;6.792;2022-07-01T01:50:14;98903.72;;;14.84;100.00
26807;BME280;14380;49.910;6.792;2022-07-01T01:52:42;98905.19;;;14.88;100.00
26807;BME280;14380;49.910;6.792;2022-07-01T01:55:11;98905.41;;;14.85;100.00
26807;BME280;14380;49.910;6.792;2022-07-01T01:57:38;98904.13;;;14.91;100.00
26807;BME280;14380;49.910;6.792;2022-07-01T02:00:06;98903.06;;;14.80;100.00
26807;BME280;14380;49.910;6.792;2022-07-01T02:02:34;98909.44;;;14.91;100.00
26807;BME280;14380;49.910;6.792;2022-07-01T02:05:02;98922.19;;;14.85;100.00
26807;BME280;14380;49.910;6.792;2022-07-01T02:07:29;98930.31;;;14.71;100.00
26807;BME280;14380;49.910;6.792;2022-07-01T02:09:55;98930.78;;;14.63;100.00
26807;BME280;14380;49.910;6.792;2022-07-01T02:12:23;98945.38;;;14.83;100.00
26807;BME280;14380;49.910;6.792;2022-07-01T02:14:50;98952.25;;;14.60;100.00
26807;BME280;14380;49.910;6.792;2022-07-01T02:17:17;98935.81;;;14.68;100.00
26807;BME280;14380;49.910;6.792;2022-07-01T02:19:43;98932.91;;;14.58;100.00
26807;BME280;14380;49.910;6.792;2022-07-01T02:22:10;98953.38;;;14.70;100.00
26807;BME280;14380;49.910;6.792;2022-07-01T02:24:37;98943.47;;;14.60;100.00
26807;BME280;14380;49.910;6.792;2022-07-01T02:27:04;98941.84;;;14.31;100.00
26807;BME280;14380;49.910;6.792;2022-07-01T02:29:32;98930.59;;;14.53;100.00
26807;BME280;14380;49.910;6.792;2022-07-01T02:31:59;98930.06;;;14.61;100.00
26807;BME280;14380;49.910;6.792;2022-07-01T02:34:25;98942.38;;;14.62;100.00
26807;BME280;14380;49.910;6.792;2022-07-01T02:36:52;98953.97;;;14.61;100.00
26807;BME280;14380;49.910;6.792;2022-07-01T02:39:20;98948.34;;;14.53;100.00
26807;BME280;14380;49.910;6.792;2022-07-01T02:41:47;98925.69;;;14.34;100.00
26807;BME280;14380;49.910;6.792;2022-07-01T02:44:33;98923.91;;;14.48;100.00
26807;BME280;14380;49.910;6.792;2022-07-01T02:47:00;98933.56;;;14.62;100.00
26807;BME280;14380;49.910;6.792;2022-07-01T02:49:27;98934.88;;;14.69;100.00
26807;BME280;14380;49.910;6.792;2022-07-01T02:51:54;98952.59;;;14.81;100.00
26807;BME280;14380;49.910;6.792;2022-07-01T02:54:20;98962.28;;;14.69;100.00
26807;BME280;14380;49.910;6.792;2022-07-01T02:56:47;98967.56;;;14.56;100.00
26807;BME280;14380;49.910;6.792;2022-07-01T02:59:14;98973.09;;;14.40;100.00
26807;BME280;14380;49.910;6.792;2022-07-01T03:01:42;98959.31;;;14.08;100.00
26807;BME280;14380;49.910;6.792;2022-07-01T03:04:08;98962.69;;;13.97;100.00
26807;BME280;14380;49.910;6.792;2022-07-01T03:06:35;98949.81;;;14.31;100.00
26807;BME280;14380;49.910;6.792;2022-07-01T03:09:02;98944.72;;;14.41;100.00
26807;BME280;14380;49.910;6.792;2022-07-01T03:11:28;98945.44;;;14.43;100.00
26807;BME280;14380;49.910;6.792;2022-07-01T03:13:55;98954.41;;;14.55;100.00
26807;BME280;14380;49.910;6.792;2022-07-01T03:16:22;98946.31;;;14.56;100.00
26807;BME280;14380;49.910;6.792;2022-07-01T03:18:50;98950.06;;;14.54;100.00
26807;BME280;14380;49.910;6.792;2022-07-01T03:21:16;98934.41;;;14.49;100.00
26807;BME280;14380;49.910;6.792;2022-07-01T03:23:43;98938.22;;;14.58;100.00
26807;BME280;14380;49.910;6.792;2022-07-01T03:26:10;98943.66;;;14.56;100.00
26807;BME280;14380;49.910;6.792;2022-07-01T03:28:37;98944.72;;;14.41;100.00
26807;BME280;14380;49.910;6.792;2022-07-01T03:31:03;98942.38;;;14.36;100.00
26807;BME280;14380;49.910;6.792;2022-07-01T03:33:30;98926.78;;;14.45;100.00
26807;BME280;14380;49.910;6.792;2022-07-01T03:35:58;98942.16;;;14.39;100.00
26807;BME280;14380;49.910;6.792;2022-07-01T03:38:25;98945.56;;;14.41;100.00
26807;BME280;14380;49.910;6.792;2022-07-01T03:40:51;98948.34;;;14.53;100.00
26807;BME280;14380;49.910;6.792;2022-07-01T03:43:18;98953.13;;;14.35;100.00
26807;BME280;14380;49.910;6.792;2022-07-01T03:45:45;98953.75;;;14.51;100.00
26807;BME280;14380;49.910;6.792;2022-07-01T03:48:11;98959.47;;;14.45;100.00
26807;BME280;14380;49.910;6.792;2022-07-01T03:50:38;98949.72;;;14.46;100.00
26807;BME280;14380;49.910;6.792;2022-07-01T03:53:06;98946.19;;;14.45;100.00
26807;BME280;14380;49.910;6.792;2022-07-01T03:55:50;98941.97;;;14.42;100.00
26807;BME280;14380;49.910;6.792;2022-07-01T03:58:17;98936.44;;;14.46;100.00
26807;BME280;14380;49.910;6.792;2022-07-01T04:00:44;98934.63;;;14.33;100.00
26807;BME280;14380;49.910;6.792;2022-07-01T04:03:11;98925.91;;;14.44;100.00
26807;BME280;14380;49.910;6.792;2022-07-01T04:05:38;98930.59;;;14.53;100.00
26807;BME280;14380;49.910;6.792;2022-07-01T04:08:07;98931.00;;;14.47;100.00
26807;BME280;14380;49.910;6.792;2022-07-01T04:10:37;98942.38;;;14.36;100.00
26807;BME280;14380;49.910;6.792;2022-07-01T04:13:04;98940.16;;;14.56;100.00
26807;BME280;14380;49.910;6.792;2022-07-01T04:15:31;98931.41;;;14.41;100.00
26807;BME280;14380;49.910;6.792;2022-07-01T04:17:57;98932.28;;;14.41;100.00
26807;BME280;14380;49.910;6.792;2022-07-01T04:20:24;98934.19;;;14.52;100.00
26807;BME280;14380;49.910;6.792;2022-07-01T04:22:51;98927.09;;;14.53;100.00
26807;BME280;14380;49.910;6.792;2022-07-01T04:25:18;98926.97;;;14.41;100.00
26807;BME280;14380;49.910;6.792;2022-07-01T04:27:44;98922.63;;;14.27;100.00
26807;BME280;14380;49.910;6.792;2022-07-01T04:30:11;98920.50;;;14.58;100.00
26807;BME280;14380;49.910;6.792;2022-07-01T04:32:38;98919.00;;;14.67;100.00
26807;BME280;14380;49.910;6.792;2022-07-01T04:35:05;98931.44;;;14.67;100.00
26807;BME280;14380;49.910;6.792;2022-07-01T04:37:32;98930.09;;;14.87;100.00
26807;BME280;14380;49.910;6.792;2022-07-01T04:39:58;98931.25;;;14.83;100.00
26807;BME280;14380;49.910;6.792;2022-07-01T04:42:26;98936.13;;;14.50;100.00
26807;BME280;14380;49.910;6.792;2022-07-01T04:44:52;98941.00;;;14.56;100.00
26807;BME280;14380;49.910;6.792;2022-07-01T04:47:19;98952.91;;;14.51;100.00
26807;BME280;14380;49.910;6.792;2022-07-01T04:49:47;98961.53;;;14.80;100.00
26807;BME280;14380;49.910;6.792;2022-07-01T04:52:14;98951.84;;;14.66;100.00
26807;BME280;14380;49.910;6.792;2022-07-01T04:54:41;98946.03;;;14.87;100.00
26807;BME280;14380;49.910;6.792;2022-07-01T04:57:07;98933.97;;;14.68;100.00
26807;BME280;14380;49.910;6.792;2022-07-01T04:59:35;98952.94;;;14.90;100.00
26807;BME280;14380;49.910;6.792;2022-07-01T05:02:03;98937.75;;;14.79;100.00
26807;BME280;14380;49.910;6.792;2022-07-01T05:04:30;98949.34;;;14.78;100.00
26807;BME280;14380;49.910;6.792;2022-07-01T05:06:56;98954.22;;;14.84;100.00
26807;BME280;14380;49.910;6.792;2022-07-01T05:09:23;98962.50;;;15.05;100.00
26807;BME280;14380;49.910;6.792;2022-07-01T05:11:50;98968.34;;;15.10;100.00
26807;BME280;14380;49.910;6.792;2022-07-01T05:14:16;98969.91;;;15.26;100.00
26807;BME280;14380;49.910;6.792;2022-07-01T05:16:44;98971.00;;;15.10;100.00
26807;BME280;14380;49.910;6.792;2022-07-01T05:19:11;98976.38;;;15.35;100.00
26807;BME280;14380;49.910;6.792;2022-07-01T05:21:55;98988.53;;;15.13;100.00
26807;BME280;14380;49.910;6.792;2022-07-01T05:24:27;98982.91;;;14.92;100.00
26807;BME280;14380;49.910;6.792;2022-07-01T05:26:54;98963.13;;;15.22;100.00
26807;BME280;14380;49.910;6.792;2022-07-01T05:29:21;98968.50;;;15.33;100.00
26807;BME280;14380;49.910;6.792;2022-07-01T05:31:49;98977.66;;;15.29;100.00
26807;BME280;14380;49.910;6.792;2022-07-01T05:34:16;98967.81;;;15.05;100.00
26807;BME280;14380;49.910;6.792;2022-07-01T05:36:43;98971.97;;;14.96;100.00
26807;BME280;14380;49.910;6.792;2022-07-01T05:39:09;98982.38;;;15.12;100.00
26807;BME280;14380;49.910;6.792;2022-07-01T05:41:37;98983.53;;;15.21;100.00
26807;BME280;14380;49.910;6.792;2022-07-01T05:44:04;98978.44;;;15.05;100.00
26807;BME280;14380;49.910;6.792;2022-07-01T05:46:30;98990.38;;;14.99;100.00
26807;BME280;14380;49.910;6.792;2022-07-01T05:48:59;98989.28;;;15.15;100.00
26807;BME280;14380;49.910;6.792;2022-07-01T05:51:25;98996.00;;;15.21;100.00
26807;BME280;14380;49.910;6.792;2022-07-01T05:53:52;99000.47;;;15.07;100.00
26807;BME280;14380;49.910;6.792;2022-07-01T05:56:19;99004.84;;;14.95;100.00
26807;BME280;14380;49.910;6.792;2022-07-01T05:58:45;98995.69;;;15.12;100.00
26807;BME280;14380;49.910;6.792;2022-07-01T06:01:12;98990.44;;;15.24;100.00
26807;BME280;14380;49.910;6.792;2022-07-01T06:03:39;98991.09;;;15.01;100.00
26807;BME280;14380;49.910;6.792;2022-07-01T06:06:07;98991.72;;;15.18;100.00
26807;BME280;14380;49.910;6.792;2022-07-01T06:08:34;98996.19;;;15.30;100.00
26807;BME280;14380;49.910;6.792;2022-07-01T06:11:01;99006.88;;;15.55;100.00
26807;BME280;14380;49.910;6.792;2022-07-01T06:13:29;99006.59;;;15.34;100.00
26807;BME280;14380;49.910;6.792;2022-07-01T06:15:55;99016.16;;;15.36;100.00
26807;BME280;14380;49.910;6.792;2022-07-01T06:18:24;99002.00;;;15.49;100.00
26807;BME280;14380;49.910;6.792;2022-07-01T06:20:50;98993.66;;;15.53;100.00
26807;BME280;14380;49.910;6.792;2022-07-01T06:23:18;98989.38;;;15.64;100.00
26807;BME280;14380;49.910;6.792;2022-07-01T06:25:45;99004.22;;;15.55;100.00
26807;BME280;14380;49.910;6.792;2022-07-01T06:28:12;98995.84;;;15.72;100.00
26807;BME280;14380;49.910;6.792;2022-07-01T06:30:39;98989.16;;;16.04;100.00
26807;BME280;14380;49.910;6.792;2022-07-01T06:33:09;98983.66;;;16.18;100.00
26807;BME280;14380;49.910;6.792;2022-07-01T06:35:35;98994.53;;;15.91;100.00
26807;BME280;14380;49.910;6.792;2022-07-01T06:38:02;98992.44;;;16.32;100.00
26807;BME280;14380;49.910;6.792;2022-07-01T06:40:30;98990.63;;;16.44;100.00
26807;BME280;14380;49.910;6.792;2022-07-01T06:42:57;98985.78;;;16.38;100.00
26807;BME280;14380;49.910;6.792;2022-07-01T06:45:23;99001.13;;;16.81;100.00
26807;BME280;14380;49.910;6.792;2022-07-01T06:47:50;98989.56;;;17.39;100.00
26807;BME280;14380;49.910;6.792;2022-07-01T06:50:17;98990.91;;;17.22;100.00
26807;BME280;14380;49.910;6.792;2022-07-01T06:52:43;99003.56;;;16.84;100.00
26807;BME280;14380;49.910;6.792;2022-07-01T06:55:10;99009.16;;;16.92;100.00
26807;BME280;14380;49.910;6.792;2022-07-01T06:57:38;99015.69;;;16.88;100.00
26807;BME280;14380;49.910;6.792;2022-07-01T07:00:06;99016.28;;;16.69;100.00
26807;BME280;14380;49.910;6.792;2022-07-01T07:02:33;99013.59;;;16.69;100.00
26807;BME280;14380;49.910;6.792;2022-07-01T07:04:59;99021.13;;;16.87;100.00
26807;BME280;14380;49.910;6.792;2022-07-01T07:07:26;99021.31;;;16.97;100.00
26807;BME280;14380;49.910;6.792;2022-07-01T07:09:53;99030.44;;;16.70;100.00
26807;BME280;14380;49.910;6.792;2022-07-01T07:12:21;99030.09;;;16.86;100.00
26807;BME280;14380;49.910;6.792;2022-07-01T07:14:49;99031.38;;;17.04;100.00
26807;BME280;14380;49.910;6.792;2022-07-01T07:17:16;99017.91;;;16.94;100.00
26807;BME280;14380;49.910;6.792;2022-07-01T07:19:43;99027.59;;;16.95;100.00
26807;BME280;14380;49.910;6.792;2022-07-01T07:22:09;99023.81;;;16.87;100.00
26807;BME280;14380;49.910;6.792;2022-07-01T07:24:36;99027.44;;;16.86;100.00
26807;BME280;14380;49.910;6.792;2022-07-01T07:27:04;99035.41;;;17.33;100.00
26807;BME280;14380;49.910;6.792;2022-07-01T07:29:30;99028.09;;;17.58;100.00
26807;BME280;14380;49.910;6.792;2022-07-01T07:31:58;99021.28;;;17.76;100.00
26807;BME280;14380;49.910;6.792;2022-07-01T07:34:25;99018.91;;;18.38;100.00
26807;BME280;14380;49.910;6.792;2022-07-01T07:36:52;99032.38;;;18.16;100.00
26807;BME280;14380;49.910;6.792;2022-07-01T07:39:18;99032.38;;;18.91;100.00
26807;BME280;14380;49.910;6.792;2022-07-01T07:41:45;99027.75;;;19.14;100.00
26807;BME280;14380;49.910;6.792;2022-07-01T07:44:12;99025.47;;;19.40;99.72
26807;BME280;14380;49.910;6.792;2022-07-01T07:46:38;99031.47;;;18.80;99.66
26807;BME280;14380;49.910;6.792;2022-07-01T07:49:06;99034.50;;;18.33;99.99
26807;BME280;14380;49.910;6.792;2022-07-01T07:51:33;99035.22;;;18.35;97.22
26807;BME280;14380;49.910;6.792;2022-07-01T07:54:00;99029.38;;;17.97;98.52
26807;BME280;14380;49.910;6.792;2022-07-01T07:56:28;99039.94;;;18.10;100.00
26807;BME280;14380;49.910;6.792;2022-07-01T07:58:54;99041.94;;;17.74;99.91
26807;BME280;14380;49.910;6.792;2022-07-01T08:01:21;99045.34;;;17.53;100.00
26807;BME280;14380;49.910;6.792;2022-07-01T08:03:48;99033.44;;;17.69;100.00
26807;BME280;14380;49.910;6.792;2022-07-01T08:06:16;99042.50;;;18.33;100.00
26807;BME280;14380;49.910;6.792;2022-07-01T08:08:42;99039.59;;;18.79;100.00
26807;BME280;14380;49.910;6.792;2022-07-01T08:11:10;99049.16;;;19.45;93.05
26807;BME280;14380;49.910;6.792;2022-07-01T08:13:37;99042.19;;;19.01;93.45
26807;BME280;14380;49.910;6.792;2022-07-01T08:16:04;99041.53;;;19.40;94.29
26807;BME280;14380;49.910;6.792;2022-07-01T08:18:31;99032.84;;;19.58;88.53
26807;BME280;14380;49.910;6.792;2022-07-01T08:20:57;99021.22;;;19.79;91.06
26807;BME280;14380;49.910;6.792;2022-07-01T08:23:25;99024.88;;;19.77;89.36
26807;BME280;14380;49.910;6.792;2022-07-01T08:25:52;99029.19;;;19.59;90.26
26807;BME280;14380;49.910;6.792;2022-07-01T08:28:19;99034.38;;;19.51;87.71
26807;BME280;14380;49.910;6.792;2022-07-01T08:30:46;99040.44;;;19.53;88.86
26807;BME280;14380;49.910;6.792;2022-07-01T08:33:13;99036.53;;;20.47;87.92
26807;BME280;14380;49.910;6.792;2022-07-01T08:35:40;99033.13;;;20.74;82.92
26807;BME280;14380;49.910;6.792;2022-07-01T08:38:07;99033.97;;;20.94;80.65
26807;BME280;14380;49.910;6.792;2022-07-01T08:40:35;99037.81;;;20.62;82.60
26807;BME280;14380;49.910;6.792;2022-07-01T08:43:04;99038.94;;;20.70;82.52
26807;BME280;14380;49.910;6.792;2022-07-01T08:45:32;99042.31;;;20.32;81.49
26807;BME280;14380;49.910;6.792;2022-07-01T08:48:00;99045.97;;;20.02;83.30
26807;BME280;14380;49.910;6.792;2022-07-01T08:50:28;99052.69;;;19.86;82.55
26807;BME280;14380;49.910;6.792;2022-07-01T08:52:55;99065.94;;;19.47;80.27
26807;BME280;14380;49.910;6.792;2022-07-01T08:55:23;99060.38;;;19.29;87.35
26807;BME280;14380;49.910;6.792;2022-07-01T08:57:51;99056.88;;;19.79;86.58
26807;BME280;14380;49.910;6.792;2022-07-01T09:00:18;99058.13;;;19.65;83.54
26807;BME280;14380;49.910;6.792;2022-07-01T09:02:53;99045.69;;;20.64;81.94
26807;BME280;14380;49.910;6.792;2022-07-01T09:05:20;99043.47;;;20.89;82.02
26807;BME280;14380;49.910;6.792;2022-07-01T09:07:48;99041.16;;;21.04;80.54
26807;BME280;14380;49.910;6.792;2022-07-01T09:10:16;99049.13;;;21.33;77.44
26807;BME280;14380;49.910;6.792;2022-07-01T09:12:44;99047.78;;;21.85;76.50
26807;BME280;14380;49.910;6.792;2022-07-01T09:15:29;99044.56;;;20.76;73.71
26807;BME280;14380;49.910;6.792;2022-07-01T09:18:04;99046.56;;;20.35;75.64
26807;BME280;14380;49.910;6.792;2022-07-01T09:20:33;99060.69;;;19.76;78.93
26807;BME280;14380;49.910;6.792;2022-07-01T09:23:05;99055.66;;;19.93;76.33
26807;BME280;14380;49.910;6.792;2022-07-01T09:25:34;99053.72;;;21.03;72.25
26807;BME280;14380;49.910;6.792;2022-07-01T09:28:10;99046.53;;;21.79;67.80
26807;BME280;14380;49.910;6.792;2022-07-01T09:30:40;99047.03;;;22.11;67.56
26807;BME280;14380;49.910;6.792;2022-07-01T09:33:09;99048.50;;;22.05;67.67
26807;BME280;14380;49.910;6.792;2022-07-01T09:35:36;99050.66;;;21.74;67.56
26807;BME280;14380;49.910;6.792;2022-07-01T09:38:04;99058.78;;;21.06;69.83
26807;BME280;14380;49.910;6.792;2022-07-01T09:40:50;99057.28;;;20.84;69.13
26807;BME280;14380;49.910;6.792;2022-07-01T09:43:19;99056.16;;;20.57;70.15
26807;BME280;14380;49.910;6.792;2022-07-01T09:45:53;99059.72;;;20.77;72.57
26807;BME280;14380;49.910;6.792;2022-07-01T09:48:21;99055.47;;;20.85;71.60
26807;BME280;14380;49.910;6.792;2022-07-01T09:50:49;99058.00;;;20.96;71.20
26807;BME280;14380;49.910;6.792;2022-07-01T09:53:16;99060.09;;;20.63;70.46
26807;BME280;14380;49.910;6.792;2022-07-01T09:55:43;99063.63;;;20.14;70.14
26807;BME280;14380;49.910;6.792;2022-07-01T09:58:10;99061.53;;;20.87;72.57
26807;BME280;14380;49.910;6.792;2022-07-01T10:00:37;99059.94;;;21.04;70.93
26807;BME280;14380;49.910;6.792;2022-07-01T10:03:06;99058.69;;;20.59;69.94
26807;BME280;14380;49.910;6.792;2022-07-01T10:05:39;99055.56;;;20.14;68.98
26807;BME280;14380;49.910;6.792;2022-07-01T10:08:39;99065.25;;;19.86;72.10
26807;BME280;14380;49.910;6.792;2022-07-01T10:11:29;99068.75;;;19.86;75.57
26807;BME280;14380;49.910;6.792;2022-07-01T10:14:06;99058.00;;;20.27;72.29
26807;BME280;14380;49.910;6.792;2022-07-01T10:16:34;99054.50;;;21.61;73.89
26807;BME280;14380;49.910;6.792;2022-07-01T10:19:24;99066.09;;;22.18;69.14
26807;BME280;14380;49.910;6.792;2022-07-01T10:21:51;99062.31;;;21.64;69.50
26807;BME280;14380;49.910;6.792;2022-07-01T10:24:20;99066.84;;;21.16;68.06
26807;BME280;14380;49.910;6.792;2022-07-01T10:26:47;99073.66;;;21.01;69.06
26807;BME280;14380;49.910;6.792;2022-07-01T10:29:29;99064.44;;;21.61;65.54
26807;BME280;14380;49.910;6.792;2022-07-01T10:32:01;99061.38;;;22.48;68.73
26807;BME280;14380;49.910;6.792;2022-07-01T10:34:41;99066.50;;;22.77;61.21
26807;BME280;14380;49.910;6.792;2022-07-01T10:37:10;99077.09;;;22.06;64.90
26807;BME280;14380;49.910;6.792;2022-07-01T10:39:56;99069.22;;;21.57;65.21
26807;BME280;14380;49.910;6.792;2022-07-01T10:42:28;99067.13;;;21.89;66.07
26807;BME280;14380;49.910;6.792;2022-07-01T10:45:04;99066.50;;;22.59;64.23
26807;BME280;14380;49.910;6.792;2022-07-01T10:47:32;99065.44;;;22.96;66.48
26807;BME280;14380;49.910;6.792;2022-07-01T10:50:03;99065.41;;;23.33;60.86
26807;BME280;14380;49.910;6.792;2022-07-01T10:52:30;99053.06;;;23.30;58.19
26807;BME280;14380;49.910;6.792;2022-07-01T10:55:00;99064.53;;;23.32;57.65
26807;BME280;14380;49.910;6.792;2022-07-01T10:57:30;99057.88;;;23.18;56.31
26807;BME280;14380;49.910;6.792;2022-07-01T11:00:24;99041.75;;;22.73;55.02
26807;BME280;14380;49.910;6.792;2022-07-01T11:02:55;99066.16;;;22.08;56.73
26807;BME280;14380;49.910;6.792;2022-07-01T11:05:23;99056.97;;;22.28;57.54
26807;BME280;14380;49.910;6.792;2022-07-01T11:07:50;99059.69;;;22.01;57.57
26807;BME280;14380;49.910;6.792;2022-07-01T11:10:17;99071.16;;;21.37;57.53
26807;BME280;14380;49.910;6.792;2022-07-01T11:12:45;99061.59;;;22.36;58.22
26807;BME280;14380;49.910;6.792;2022-07-01T11:15:14;99059.69;;;23.09;57.30
26807;BME280;14380;49.910;6.792;2022-07-01T11:17:43;99068.66;;;23.18;56.35
26807;BME280;14380;49.910;6.792;2022-07-01T11:20:11;99052.69;;;22.98;58.91
26807;BME280;14380;49.910;6.792;2022-07-01T11:22:39;99059.88;;;23.16;57.20
26807;BME280;14380;49.910;6.792;2022-07-01T11:25:08;99064.19;;;23.61;56.20
26807;BME280;14380;49.910;6.792;2022-07-01T11:27:36;99050.25;;;23.74;56.35
26807;BME280;14380;49.910;6.792;2022-07-01T11:30:05;99052.25;;;23.72;56.76
26807;BME280;14380;49.910;6.792;2022-07-01T11:32:35;99061.16;;;23.65;54.19
26807;BME280;14380;49.910;6.792;2022-07-01T11:35:04;99054.53;;;23.94;53.38
26807;BME280;14380;49.910;6.792;2022-07-01T11:38:04;99047.28;;;23.94;52.58
26807;BME280;14380;49.910;6.792;2022-07-01T11:40:48;99044.06;;;23.82;54.31
26807;BME280;14380;49.910;6.792;2022-07-01T11:43:19;99044.84;;;24.34;55.15
26807;BME280;14380;49.910;6.792;2022-07-01T11:45:46;99045.41;;;23.86;52.49
26807;BME280;14380;49.910;6.792;2022-07-01T11:48:28;99034.94;;;24.43;51.93
26807;BME280;14380;49.910;6.792;2022-07-01T11:50:54;99033.53;;;24.05;53.49
26807;BME280;14380;49.910;6.792;2022-07-01T11:53:23;99038.78;;;24.40;51.65
26807;BME280;14380;49.910;6.792;2022-07-01T11:55:50;99035.75;;;24.35;52.40
26807;BME280;14380;49.910;6.792;2022-07-01T11:58:17;99034.44;;;24.64;52.56
26807;BME280;14380;49.910;6.792;2022-07-01T12:00:44;99033.06;;;24.60;49.62
26807;BME280;14380;49.910;6.792;2022-07-01T12:03:11;99038.13;;;24.79;50.71
26807;BME280;14380;49.910;6.792;2022-07-01T12:05:38;99028.94;;;25.22;49.57
26807;BME280;14380;49.910;6.792;2022-07-01T12:08:05;99022.47;;;24.83;49.54
26807;BME280;14380;49.910;6.792;2022-07-01T12:10:34;99021.44;;;24.92;50.47
26807;BME280;14380;49.910;6.792;2022-07-01T12:13:20;99025.66;;;24.78;50.38
26807;BME280;14380;49.910;6.792;2022-07-01T12:15:47;99031.00;;;24.12;52.16
26807;BME280;14380;49.910;6.792;2022-07-01T12:18:15;99039.31;;;23.76;55.30
26807;BME280;14380;49.910;6.792;2022-07-01T12:20:47;99043.63;;;24.12;54.01
26807;BME280;14380;49.910;6.792;2022-07-01T12:23:15;99033.06;;;24.76;53.24
26807;BME280;14380;49.910;6.792;2022-07-01T12:25:48;99035.09;;;24.25;52.02
26807;BME280;14380;49.910;6.792;2022-07-01T12:28:31;99040.00;;;23.86;53.06
26807;BME280;14380;49.910;6.792;2022-07-01T12:31:03;99039.84;;;23.88;54.23
26807;BME280;14380;49.910;6.792;2022-07-01T12:33:32;99055.22;;;23.96;54.46
26807;BME280;14380;49.910;6.792;2022-07-01T12:36:01;99055.09;;;24.14;52.77
26807;BME280;14380;49.910;6.792;2022-07-01T12:38:28;99055.94;;;24.06;54.07
26807;BME280;14380;49.910;6.792;2022-07-01T12:40:56;99050.97;;;24.61;53.44
26807;BME280;14380;49.910;6.792;2022-07-01T12:43:24;99046.91;;;24.82;53.50
26807;BME280;14380;49.910;6.792;2022-07-01T12:45:54;99050.75;;;25.12;52.10
26807;BME280;14380;49.910;6.792;2022-07-01T12:48:21;99047.41;;;25.02;52.47
26807;BME280;14380;49.910;6.792;2022-07-01T12:50:48;99033.38;;;25.15;54.07
26807;BME280;14380;49.910;6.792;2022-07-01T12:53:18;99040.50;;;24.74;53.22
26807;BME280;14380;49.910;6.792;2022-07-01T12:55:47;99044.66;;;24.19;52.60
26807;BME280;14380;49.910;6.792;2022-07-01T12:58:17;99048.94;;;24.55;53.31
26807;BME280;14380;49.910;6.792;2022-07-01T13:00:45;99044.22;;;24.82;52.23
26807;BME280;14380;49.910;6.792;2022-07-01T13:03:13;99037.56;;;25.34;50.52